Weather at Abraham Lincoln Capital Airport

Public forecast

Using degrees Fahrenheit for public forecast. Weather courtesy of forecast.io.

Current aviation weather report (METAR) for Abraham Lincoln Capital Airport

Retrieved 2020/09/27 20:52 UTC (54 minutes ago):

KSPI 272052Z 35009G18KT 10SM SCT047 BKN070 26/12 A2978 RMK AO2 SLP079 T02560117 51002

Aviation forecast (TAF) for Abraham Lincoln Capital Airport

Retrieved 2020/09/27 18:36 UTC (3 hours ago):

TAF KSPI 271733Z 2718/2818 VRB05KT P6SM SCT025 BKN250 FM272200 30010G18KT P6SM VCSH SCT040 OVC070 FM280300 35012KT 6SM -SHRA BR OVC025 FM281100 31007KT P6SM VCSH BKN015